sensor_id;sensor_type;location;lat;lon;timestamp;P1;durP1;ratioP1;P2;durP2;ratioP2
64633;SDS011;51043;52.406;9.690;2023-12-28T00:00:32;4.10;;;2.30;;
64633;SDS011;51043;52.406;9.690;2023-12-28T00:03:02;4.93;;;2.07;;
64633;SDS011;51043;52.406;9.690;2023-12-28T00:05:32;3.20;;;2.10;;
64633;SDS011;51043;52.406;9.690;2023-12-28T00:08:04;4.27;;;2.17;;
64633;SDS011;51043;52.406;9.690;2023-12-28T00:10:35;4.53;;;2.10;;
64633;SDS011;51043;52.406;9.690;2023-12-28T00:13:05;5.53;;;2.07;;
64633;SDS011;51043;52.406;9.690;2023-12-28T00:15:35;3.30;;;2.10;;
64633;SDS011;51043;52.406;9.690;2023-12-28T00:18:03;6.57;;;2.43;;
64633;SDS011;51043;52.406;9.690;2023-12-28T00:20:32;2.13;;;1.77;;
64633;SDS011;51043;52.406;9.690;2023-12-28T00:23:01;4.20;;;1.90;;
64633;SDS011;51043;52.406;9.690;2023-12-28T00:25:30;4.00;;;2.23;;
64633;SDS011;51043;52.406;9.690;2023-12-28T00:27:59;3.63;;;1.93;;
64633;SDS011;51043;52.406;9.690;2023-12-28T00:30:28;6.07;;;1.93;;
64633;SDS011;51043;52.406;9.690;2023-12-28T00:32:56;2.87;;;1.90;;
64633;SDS011;51043;52.406;9.690;2023-12-28T00:35:25;3.83;;;1.97;;
64633;SDS011;51043;52.406;9.690;2023-12-28T00:37:53;4.40;;;1.87;;
64633;SDS011;51043;52.406;9.690;2023-12-28T00:40:22;2.37;;;1.67;;
64633;SDS011;51043;52.406;9.690;2023-12-28T00:42:52;4.63;;;2.33;;
64633;SDS011;51043;52.406;9.690;2023-12-28T00:45:20;4.80;;;1.70;;
64633;SDS011;51043;52.406;9.690;2023-12-28T00:47:48;4.47;;;1.90;;
64633;SDS011;51043;52.406;9.690;2023-12-28T00:50:18;2.50;;;1.67;;
64633;SDS011;51043;52.406;9.690;2023-12-28T00:52:46;4.37;;;2.20;;
64633;SDS011;51043;52.406;9.690;2023-12-28T00:55:15;2.00;;;1.67;;
64633;SDS011;51043;52.406;9.690;2023-12-28T00:57:43;2.63;;;1.80;;
64633;SDS011;51043;52.406;9.690;2023-12-28T01:00:13;2.97;;;1.97;;
64633;SDS011;51043;52.406;9.690;2023-12-28T01:02:41;4.70;;;2.00;;
64633;SDS011;51043;52.406;9.690;2023-12-28T01:05:15;4.73;;;2.00;;
64633;SDS011;51043;52.406;9.690;2023-12-28T01:07:45;3.70;;;2.03;;
64633;SDS011;51043;52.406;9.690;2023-12-28T01:10:15;3.00;;;1.93;;
64633;SDS011;51043;52.406;9.690;2023-12-28T01:12:45;4.93;;;2.00;;
64633;SDS011;51043;52.406;9.690;2023-12-28T01:15:14;2.50;;;2.00;;
64633;SDS011;51043;52.406;9.690;2023-12-28T01:17:44;5.27;;;2.20;;
64633;SDS011;51043;52.406;9.690;2023-12-28T01:20:13;3.73;;;2.17;;
64633;SDS011;51043;52.406;9.690;2023-12-28T01:22:42;3.70;;;2.20;;
64633;SDS011;51043;52.406;9.690;2023-12-28T01:25:10;6.57;;;2.00;;
64633;SDS011;51043;52.406;9.690;2023-12-28T01:27:39;5.10;;;2.10;;
64633;SDS011;51043;52.406;9.690;2023-12-28T01:30:08;2.60;;;1.97;;
64633;SDS011;51043;52.406;9.690;2023-12-28T01:32:38;4.80;;;1.73;;
64633;SDS011;51043;52.406;9.690;2023-12-28T01:35:06;6.43;;;2.10;;
64633;SDS011;51043;52.406;9.690;2023-12-28T01:37:35;3.97;;;2.20;;
64633;SDS011;51043;52.406;9.690;2023-12-28T01:40:03;4.47;;;2.00;;
64633;SDS011;51043;52.406;9.690;2023-12-28T01:42:33;3.90;;;1.87;;
64633;SDS011;51043;52.406;9.690;2023-12-28T01:45:05;2.90;;;1.67;;
64633;SDS011;51043;52.406;9.690;2023-12-28T01:47:34;4.40;;;2.27;;
64633;SDS011;51043;52.406;9.690;2023-12-28T01:50:06;3.60;;;1.93;;
64633;SDS011;51043;52.406;9.690;2023-12-28T01:52:36;3.30;;;2.07;;
64633;SDS011;51043;52.406;9.690;2023-12-28T01:55:05;3.03;;;1.73;;
64633;SDS011;51043;52.406;9.690;2023-12-28T01:57:36;3.83;;;2.20;;
64633;SDS011;51043;52.406;9.690;2023-12-28T02:00:05;2.20;;;1.93;;
64633;SDS011;51043;52.406;9.690;2023-12-28T02:02:40;3.97;;;2.07;;
64633;SDS011;51043;52.406;9.690;2023-12-28T02:05:11;4.57;;;1.93;;
64633;SDS011;51043;52.406;9.690;2023-12-28T02:07:39;3.13;;;2.03;;
64633;SDS011;51043;52.406;9.690;2023-12-28T02:10:08;3.60;;;2.03;;
64633;SDS011;51043;52.406;9.690;2023-12-28T02:12:38;3.17;;;2.00;;
64633;SDS011;51043;52.406;9.690;2023-12-28T02:15:07;2.87;;;2.13;;
64633;SDS011;51043;52.406;9.690;2023-12-28T02:17:37;3.63;;;1.90;;
64633;SDS011;51043;52.406;9.690;2023-12-28T02:20:12;3.07;;;2.10;;
64633;SDS011;51043;52.406;9.690;2023-12-28T02:22:42;2.90;;;2.00;;
64633;SDS011;51043;52.406;9.690;2023-12-28T02:25:12;3.43;;;2.30;;
64633;SDS011;51043;52.406;9.690;2023-12-28T02:27:41;3.83;;;2.10;;
64633;SDS011;51043;52.406;9.690;2023-12-28T02:30:13;3.13;;;2.40;;
64633;SDS011;51043;52.406;9.690;2023-12-28T02:32:52;3.77;;;2.00;;
64633;SDS011;51043;52.406;9.690;2023-12-28T02:35:26;4.83;;;2.37;;
64633;SDS011;51043;52.406;9.690;2023-12-28T02:38:01;2.90;;;1.93;;
64633;SDS011;51043;52.406;9.690;2023-12-28T02:40:35;3.93;;;2.23;;
64633;SDS011;51043;52.406;9.690;2023-12-28T02:43:05;3.40;;;2.20;;
64633;SDS011;51043;52.406;9.690;2023-12-28T02:45:33;5.83;;;2.20;;
64633;SDS011;51043;52.406;9.690;2023-12-28T02:48:06;3.47;;;2.20;;
64633;SDS011;51043;52.406;9.690;2023-12-28T02:50:35;3.33;;;2.40;;
64633;SDS011;51043;52.406;9.690;2023-12-28T02:53:03;3.57;;;2.40;;
64633;SDS011;51043;52.406;9.690;2023-12-28T02:55:35;4.80;;;2.30;;
64633;SDS011;51043;52.406;9.690;2023-12-28T02:58:04;4.63;;;2.20;;
64633;SDS011;51043;52.406;9.690;2023-12-28T03:00:32;7.43;;;2.40;;
64633;SDS011;51043;52.406;9.690;2023-12-28T03:03:01;4.67;;;2.00;;
64633;SDS011;51043;52.406;9.690;2023-12-28T03:05:30;3.60;;;2.00;;
64633;SDS011;51043;52.406;9.690;2023-12-28T03:07:58;4.20;;;2.10;;
64633;SDS011;51043;52.406;9.690;2023-12-28T03:10:26;6.87;;;2.57;;
64633;SDS011;51043;52.406;9.690;2023-12-28T03:12:56;3.13;;;2.00;;
64633;SDS011;51043;52.406;9.690;2023-12-28T03:15:25;2.43;;;2.10;;
64633;SDS011;51043;52.406;9.690;2023-12-28T03:17:53;5.10;;;2.10;;
64633;SDS011;51043;52.406;9.690;2023-12-28T03:20:25;5.63;;;2.20;;
64633;SDS011;51043;52.406;9.690;2023-12-28T03:22:53;5.07;;;2.37;;
64633;SDS011;51043;52.406;9.690;2023-12-28T03:25:21;4.80;;;2.00;;
64633;SDS011;51043;52.406;9.690;2023-12-28T03:27:50;2.47;;;2.07;;
64633;SDS011;51043;52.406;9.690;2023-12-28T03:30:20;5.73;;;2.40;;
64633;SDS011;51043;52.406;9.690;2023-12-28T03:32:48;4.50;;;2.20;;
64633;SDS011;51043;52.406;9.690;2023-12-28T03:35:17;3.57;;;2.43;;
64633;SDS011;51043;52.406;9.690;2023-12-28T03:37:45;3.87;;;2.20;;
64633;SDS011;51043;52.406;9.690;2023-12-28T03:40:13;2.87;;;2.30;;
64633;SDS011;51043;52.406;9.690;2023-12-28T03:42:42;2.70;;;1.80;;
64633;SDS011;51043;52.406;9.690;2023-12-28T03:45:11;3.90;;;2.30;;
64633;SDS011;51043;52.406;9.690;2023-12-28T03:47:41;3.67;;;2.07;;
64633;SDS011;51043;52.406;9.690;2023-12-28T03:50:10;4.13;;;2.33;;
64633;SDS011;51043;52.406;9.690;2023-12-28T03:52:38;2.87;;;2.00;;
64633;SDS011;51043;52.406;9.690;2023-12-28T03:55:07;3.63;;;2.20;;
64633;SDS011;51043;52.406;9.690;2023-12-28T03:57:36;6.43;;;2.27;;
64633;SDS011;51043;52.406;9.690;2023-12-28T04:00:06;4.53;;;2.30;;
64633;SDS011;51043;52.406;9.690;2023-12-28T04:02:39;6.07;;;2.30;;
64633;SDS011;51043;52.406;9.690;2023-12-28T04:05:10;2.77;;;1.90;;
64633;SDS011;51043;52.406;9.690;2023-12-28T04:07:38;2.73;;;1.97;;
64633;SDS011;51043;52.406;9.690;2023-12-28T04:10:08;3.73;;;2.20;;
64633;SDS011;51043;52.406;9.690;2023-12-28T04:12:38;2.70;;;1.90;;
64633;SDS011;51043;52.406;9.690;2023-12-28T04:15:09;3.63;;;2.00;;
64633;SDS011;51043;52.406;9.690;2023-12-28T04:17:38;3.40;;;2.10;;
64633;SDS011;51043;52.406;9.690;2023-12-28T04:20:12;5.13;;;2.20;;
64633;SDS011;51043;52.406;9.690;2023-12-28T04:22:42;4.77;;;2.30;;
64633;SDS011;51043;52.406;9.690;2023-12-28T04:25:12;5.10;;;1.90;;
64633;SDS011;51043;52.406;9.690;2023-12-28T04:27:44;2.23;;;1.93;;
64633;SDS011;51043;52.406;9.690;2023-12-28T04:30:17;3.27;;;2.03;;
64633;SDS011;51043;52.406;9.690;2023-12-28T04:32:47;3.37;;;2.23;;
64633;SDS011;51043;52.406;9.690;2023-12-28T04:35:16;2.60;;;1.60;;
64633;SDS011;51043;52.406;9.690;2023-12-28T04:37:45;4.20;;;2.20;;
64633;SDS011;51043;52.406;9.690;2023-12-28T04:40:13;3.27;;;2.30;;
64633;SDS011;51043;52.406;9.690;2023-12-28T04:42:41;4.33;;;1.80;;
64633;SDS011;51043;52.406;9.690;2023-12-28T04:45:10;5.13;;;2.30;;
64633;SDS011;51043;52.406;9.690;2023-12-28T04:47:38;4.97;;;2.23;;
64633;SDS011;51043;52.406;9.690;2023-12-28T04:50:10;4.57;;;2.07;;
64633;SDS011;51043;52.406;9.690;2023-12-28T04:52:38;6.60;;;2.73;;
64633;SDS011;51043;52.406;9.690;2023-12-28T04:55:07;3.57;;;2.00;;
64633;SDS011;51043;52.406;9.690;2023-12-28T04:57:36;5.53;;;1.80;;
64633;SDS011;51043;52.406;9.690;2023-12-28T05:00:04;3.07;;;2.30;;
64633;SDS011;51043;52.406;9.690;2023-12-28T05:02:35;5.17;;;2.20;;
64633;SDS011;51043;52.406;9.690;2023-12-28T05:05:04;5.10;;;2.10;;
64633;SDS011;51043;52.406;9.690;2023-12-28T05:07:36;2.80;;;1.70;;
64633;SDS011;51043;52.406;9.690;2023-12-28T05:10:04;4.40;;;2.10;;
64633;SDS011;51043;52.406;9.690;2023-12-28T05:12:33;4.70;;;2.17;;
64633;SDS011;51043;52.406;9.690;2023-12-28T05:15:08;5.50;;;2.30;;
64633;SDS011;51043;52.406;9.690;2023-12-28T05:17:39;3.83;;;1.83;;
64633;SDS011;51043;52.406;9.690;2023-12-28T05:20:08;3.57;;;2.00;;
64633;SDS011;51043;52.406;9.690;2023-12-28T05:22:38;6.47;;;2.70;;
64633;SDS011;51043;52.406;9.690;2023-12-28T05:25:07;7.17;;;2.57;;
64633;SDS011;51043;52.406;9.690;2023-12-28T05:27:37;5.17;;;2.20;;
64633;SDS011;51043;52.406;9.690;2023-12-28T05:30:06;2.47;;;1.73;;
64633;SDS011;51043;52.406;9.690;2023-12-28T05:32:36;3.40;;;2.10;;
64633;SDS011;51043;52.406;9.690;2023-12-28T05:35:05;4.13;;;2.07;;
64633;SDS011;51043;52.406;9.690;2023-12-28T05:37:33;5.13;;;2.07;;
64633;SDS011;51043;52.406;9.690;2023-12-28T05:40:10;4.33;;;2.13;;
64633;SDS011;51043;52.406;9.690;2023-12-28T05:42:40;4.73;;;2.30;;
64633;SDS011;51043;52.406;9.690;2023-12-28T05:45:10;8.40;;;2.30;;
64633;SDS011;51043;52.406;9.690;2023-12-28T05:47:39;6.13;;;2.30;;
64633;SDS011;51043;52.406;9.690;2023-12-28T05:50:08;2.83;;;1.70;;
64633;SDS011;51043;52.406;9.690;2023-12-28T05:52:37;4.23;;;1.90;;
64633;SDS011;51043;52.406;9.690;2023-12-28T05:55:06;6.10;;;2.23;;
64633;SDS011;51043;52.406;9.690;2023-12-28T05:57:35;4.33;;;2.00;;
64633;SDS011;51043;52.406;9.690;2023-12-28T06:00:05;6.03;;;2.03;;
64633;SDS011;51043;52.406;9.690;2023-12-28T06:02:39;2.70;;;1.77;;
64633;SDS011;51043;52.406;9.690;2023-12-28T06:05:07;5.83;;;1.97;;
64633;SDS011;51043;52.406;9.690;2023-12-28T06:07:36;4.57;;;1.70;;
64633;SDS011;51043;52.406;9.690;2023-12-28T06:10:05;4.30;;;2.00;;
64633;SDS011;51043;52.406;9.690;2023-12-28T06:12:38;3.50;;;1.40;;
64633;SDS011;51043;52.406;9.690;2023-12-28T06:15:09;7.30;;;2.33;;
64633;SDS011;51043;52.406;9.690;2023-12-28T06:17:37;3.03;;;1.80;;
64633;SDS011;51043;52.406;9.690;2023-12-28T06:20:06;5.17;;;2.23;;
64633;SDS011;51043;52.406;9.690;2023-12-28T06:22:36;4.63;;;2.00;;
64633;SDS011;51043;52.406;9.690;2023-12-28T06:25:05;6.27;;;1.90;;
64633;SDS011;51043;52.406;9.690;2023-12-28T06:27:34;4.13;;;2.10;;
64633;SDS011;51043;52.406;9.690;2023-12-28T06:30:06;6.73;;;2.17;;
64633;SDS011;51043;52.406;9.690;2023-12-28T06:32:35;2.20;;;1.60;;
64633;SDS011;51043;52.406;9.690;2023-12-28T06:35:04;4.97;;;1.97;;
64633;SDS011;51043;52.406;9.690;2023-12-28T06:37:34;4.57;;;2.00;;
64633;SDS011;51043;52.406;9.690;2023-12-28T06:40:03;3.00;;;2.00;;
64633;SDS011;51043;52.406;9.690;2023-12-28T06:42:31;5.83;;;2.03;;
64633;SDS011;51043;52.406;9.690;2023-12-28T06:45:00;3.50;;;1.93;;
64633;SDS011;51043;52.406;9.690;2023-12-28T06:47:29;2.77;;;1.67;;
64633;SDS011;51043;52.406;9.690;2023-12-28T06:49:58;2.50;;;1.90;;
64633;SDS011;51043;52.406;9.690;2023-12-28T06:52:26;2.90;;;2.07;;
64633;SDS011;51043;52.406;9.690;2023-12-28T06:54:55;5.30;;;2.37;;
64633;SDS011;51043;52.406;9.690;2023-12-28T06:57:23;4.40;;;1.87;;
64633;SDS011;51043;52.406;9.690;2023-12-28T06:59:51;4.53;;;2.20;;
64633;SDS011;51043;52.406;9.690;2023-12-28T07:02:20;2.47;;;1.50;;
64633;SDS011;51043;52.406;9.690;2023-12-28T07:04:50;6.87;;;2.10;;
64633;SDS011;51043;52.406;9.690;2023-12-28T07:07:18;4.40;;;1.83;;
64633;SDS011;51043;52.406;9.690;2023-12-28T07:09:46;5.13;;;1.90;;
64633;SDS011;51043;52.406;9.690;2023-12-28T07:12:15;4.50;;;2.17;;
64633;SDS011;51043;52.406;9.690;2023-12-28T07:14:46;2.70;;;1.73;;
64633;SDS011;51043;52.406;9.690;2023-12-28T07:17:15;4.93;;;2.10;;
64633;SDS011;51043;52.406;9.690;2023-12-28T07:19:44;3.77;;;1.60;;
64633;SDS011;51043;52.406;9.690;2023-12-28T07:22:14;3.73;;;1.80;;
64633;SDS011;51043;52.406;9.690;2023-12-28T07:24:42;4.87;;;2.03;;
64633;SDS011;51043;52.406;9.690;2023-12-28T07:27:12;2.97;;;1.73;;
64633;SDS011;51043;52.406;9.690;2023-12-28T07:29:45;3.40;;;1.60;;
64633;SDS011;51043;52.406;9.690;2023-12-28T07:32:13;3.73;;;1.83;;
64633;SDS011;51043;52.406;9.690;2023-12-28T07:34:44;3.87;;;1.70;;
64633;SDS011;51043;52.406;9.690;2023-12-28T07:37:15;2.20;;;1.40;;
64633;SDS011;51043;52.406;9.690;2023-12-28T07:39:43;4.17;;;2.20;;
64633;SDS011;51043;52.406;9.690;2023-12-28T07:42:13;6.63;;;2.20;;
64633;SDS011;51043;52.406;9.690;2023-12-28T07:44:43;5.90;;;1.90;;
64633;SDS011;51043;52.406;9.690;2023-12-28T07:47:12;5.40;;;2.03;;
64633;SDS011;51043;52.406;9.690;2023-12-28T07:49:40;5.47;;;1.77;;
64633;SDS011;51043;52.406;9.690;2023-12-28T07:52:09;4.70;;;1.90;;
64633;SDS011;51043;52.406;9.690;2023-12-28T07:54:38;6.33;;;1.90;;
64633;SDS011;51043;52.406;9.690;2023-12-28T07:57:07;3.30;;;1.60;;
64633;SDS011;51043;52.406;9.690;2023-12-28T07:59:40;3.97;;;1.63;;
64633;SDS011;51043;52.406;9.690;2023-12-28T08:02:08;5.27;;;2.10;;
64633;SDS011;51043;52.406;9.690;2023-12-28T08:04:37;10.13;;;2.30;;
64633;SDS011;51043;52.406;9.690;2023-12-28T08:07:06;9.07;;;2.20;;
64633;SDS011;51043;52.406;9.690;2023-12-28T08:09:35;4.93;;;2.23;;
64633;SDS011;51043;52.406;9.690;2023-12-28T08:12:06;5.73;;;2.10;;
64633;SDS011;51043;52.406;9.690;2023-12-28T08:14:34;6.43;;;1.60;;
64633;SDS011;51043;52.406;9.690;2023-12-28T08:17:03;4.70;;;2.10;;
64633;SDS011;51043;52.406;9.690;2023-12-28T08:19:32;2.53;;;1.80;;
64633;SDS011;51043;52.406;9.690;2023-12-28T08:22:01;5.43;;;2.50;;
64633;SDS011;51043;52.406;9.690;2023-12-28T08:24:31;6.13;;;1.70;;
64633;SDS011;51043;52.406;9.690;2023-12-28T08:27:02;5.57;;;1.90;;
64633;SDS011;51043;52.406;9.690;2023-12-28T08:29:38;4.63;;;2.00;;
64633;SDS011;51043;52.406;9.690;2023-12-28T08:32:08;5.57;;;1.97;;
64633;SDS011;51043;52.406;9.690;2023-12-28T08:34:40;5.87;;;2.10;;
64633;SDS011;51043;52.406;9.690;2023-12-28T08:37:08;5.57;;;2.10;;
64633;SDS011;51043;52.406;9.690;2023-12-28T08:39:42;3.33;;;1.63;;
64633;SDS011;51043;52.406;9.690;2023-12-28T08:42:10;3.63;;;1.63;;
64633;SDS011;51043;52.406;9.690;2023-12-28T08:44:42;4.10;;;1.70;;
64633;SDS011;51043;52.406;9.690;2023-12-28T08:47:12;5.47;;;2.17;;
64633;SDS011;51043;52.406;9.690;2023-12-28T08:49:42;2.77;;;1.57;;
64633;SDS011;51043;52.406;9.690;2023-12-28T08:52:10;5.17;;;2.17;;
64633;SDS011;51043;52.406;9.690;2023-12-28T08:54:41;5.33;;;1.83;;
64633;SDS011;51043;52.406;9.690;2023-12-28T08:57:09;3.83;;;1.97;;
64633;SDS011;51043;52.406;9.690;2023-12-28T08:59:39;4.93;;;2.00;;
64633;SDS011;51043;52.406;9.690;2023-12-28T09:02:09;7.63;;;3.50;;
64633;SDS011;51043;52.406;9.690;2023-12-28T09:04:38;6.70;;;2.83;;
64633;SDS011;51043;52.406;9.690;2023-12-28T09:07:07;6.13;;;2.53;;
64633;SDS011;51043;52.406;9.690;2023-12-28T09:09:36;8.43;;;2.07;;
64633;SDS011;51043;52.406;9.690;2023-12-28T09:12:07;6.13;;;2.60;;
64633;SDS011;51043;52.406;9.690;2023-12-28T09:14:36;8.80;;;2.10;;
64633;SDS011;51043;52.406;9.690;2023-12-28T09:17:06;4.43;;;2.17;;
64633;SDS011;51043;52.406;9.690;2023-12-28T09:19:35;5.13;;;2.47;;
64633;SDS011;51043;52.406;9.690;2023-12-28T09:22:04;4.93;;;2.60;;
64633;SDS011;51043;52.406;9.690;2023-12-28T09:24:33;6.47;;;3.67;;
64633;SDS011;51043;52.406;9.690;2023-12-28T09:27:02;6.83;;;3.10;;
64633;SDS011;51043;52.406;9.690;2023-12-28T09:29:31;4.00;;;1.97;;
64633;SDS011;51043;52.406;9.690;2023-12-28T09:32:00;6.60;;;3.50;;
64633;SDS011;51043;52.406;9.690;2023-12-28T09:34:28;7.00;;;3.00;;
64633;SDS011;51043;52.406;9.690;2023-12-28T09:36:58;6.17;;;2.93;;
64633;SDS011;51043;52.406;9.690;2023-12-28T09:39:28;6.47;;;2.87;;
64633;SDS011;51043;52.406;9.690;2023-12-28T09:41:59;5.37;;;2.77;;
64633;SDS011;51043;52.406;9.690;2023-12-28T09:44:32;3.67;;;2.07;;
64633;SDS011;51043;52.406;9.690;2023-12-28T09:47:02;6.80;;;2.40;;
64633;SDS011;51043;52.406;9.690;2023-12-28T09:49:33;5.80;;;2.50;;
64633;SDS011;51043;52.406;9.690;2023-12-28T09:52:07;3.30;;;1.87;;
64633;SDS011;51043;52.406;9.690;2023-12-28T09:54:36;5.57;;;3.10;;
64633;SDS011;51043;52.406;9.690;2023-12-28T09:57:05;6.77;;;2.60;;
64633;SDS011;51043;52.406;9.690;2023-12-28T09:59:36;4.93;;;2.23;;
64633;SDS011;51043;52.406;9.690;2023-12-28T10:02:10;2.93;;;1.70;;
64633;SDS011;51043;52.406;9.690;2023-12-28T10:04:39;5.77;;;2.17;;
64633;SDS011;51043;52.406;9.690;2023-12-28T10:07:10;5.30;;;2.30;;
64633;SDS011;51043;52.406;9.690;2023-12-28T10:09:38;8.13;;;2.50;;
64633;SDS011;51043;52.406;9.690;2023-12-28T10:12:08;6.27;;;1.83;;
64633;SDS011;51043;52.406;9.690;2023-12-28T10:14:41;9.37;;;2.70;;
64633;SDS011;51043;52.406;9.690;2023-12-28T10:17:13;2.80;;;1.63;;
64633;SDS011;51043;52.406;9.690;2023-12-28T10:19:42;5.40;;;2.30;;
64633;SDS011;51043;52.406;9.690;2023-12-28T10:22:17;8.00;;;2.50;;
64633;SDS011;51043;52.406;9.690;2023-12-28T10:24:46;7.47;;;2.20;;
64633;SDS011;51043;52.406;9.690;2023-12-28T10:27:15;6.50;;;2.53;;
64633;SDS011;51043;52.406;9.690;2023-12-28T10:29:43;3.27;;;1.50;;
64633;SDS011;51043;52.406;9.690;2023-12-28T10:32:12;9.77;;;2.30;;
64633;SDS011;51043;52.406;9.690;2023-12-28T10:34:44;6.17;;;2.40;;
64633;SDS011;51043;52.406;9.690;2023-12-28T10:37:15;8.60;;;2.70;;
64633;SDS011;51043;52.406;9.690;2023-12-28T10:39:47;8.00;;;2.80;;
64633;SDS011;51043;52.406;9.690;2023-12-28T10:42:21;7.37;;;2.80;;
64633;SDS011;51043;52.406;9.690;2023-12-28T10:47:54;5.20;;;2.20;;
64633;SDS011;51043;52.406;9.690;2023-12-28T10:50:29;9.50;;;2.20;;
64633;SDS011;51043;52.406;9.690;2023-12-28T10:53:08;10.87;;;3.13;;
64633;SDS011;51043;52.406;9.690;2023-12-28T10:55:58;4.93;;;2.20;;
64633;SDS011;51043;52.406;9.690;2023-12-28T10:58:34;7.80;;;2.20;;
64633;SDS011;51043;52.406;9.690;2023-12-28T11:01:12;10.20;;;2.93;;
64633;SDS011;51043;52.406;9.690;2023-12-28T11:03:45;5.60;;;1.80;;
64633;SDS011;51043;52.406;9.690;2023-12-28T11:06:22;17.70;;;5.23;;
64633;SDS011;51043;52.406;9.690;2023-12-28T11:08:56;11.57;;;4.57;;
64633;SDS011;51043;52.406;9.690;2023-12-28T11:11:25;12.23;;;5.57;;
64633;SDS011;51043;52.406;9.690;2023-12-28T11:13:57;9.00;;;2.70;;
64633;SDS011;51043;52.406;9.690;2023-12-28T11:16:28;6.10;;;2.23;;
64633;SDS011;51043;52.406;9.690;2023-12-28T11:18:58;7.30;;;2.77;;
64633;SDS011;51043;52.406;9.690;2023-12-28T11:21:27;12.00;;;2.20;;
64633;SDS011;51043;52.406;9.690;2023-12-28T11:23:58;11.53;;;3.10;;
64633;SDS011;51043;52.406;9.690;2023-12-28T11:26:27;10.20;;;3.10;;
64633;SDS011;51043;52.406;9.690;2023-12-28T11:29:00;6.87;;;2.97;;
64633;SDS011;51043;52.406;9.690;2023-12-28T11:31:32;15.17;;;4.97;;
64633;SDS011;51043;52.406;9.690;2023-12-28T11:34:03;9.77;;;2.43;;
64633;SDS011;51043;52.406;9.690;2023-12-28T11:36:33;8.20;;;2.60;;
64633;SDS011;51043;52.406;9.690;2023-12-28T11:39:05;10.80;;;2.07;;
64633;SDS011;51043;52.406;9.690;2023-12-28T11:41:35;5.73;;;2.30;;
64633;SDS011;51043;52.406;9.690;2023-12-28T11:44:04;13.47;;;5.47;;
64633;SDS011;51043;52.406;9.690;2023-12-28T11:46:34;19.47;;;7.80;;
64633;SDS011;51043;52.406;9.690;2023-12-28T11:49:05;8.77;;;2.30;;
64633;SDS011;51043;52.406;9.690;2023-12-28T11:51:36;7.40;;;2.47;;
64633;SDS011;51043;52.406;9.690;2023-12-28T11:54:07;10.43;;;4.20;;
64633;SDS011;51043;52.406;9.690;2023-12-28T11:56:35;12.37;;;3.50;;
64633;SDS011;51043;52.406;9.690;2023-12-28T11:59:05;11.93;;;3.13;;
64633;SDS011;51043;52.406;9.690;2023-12-28T12:01:35;9.80;;;3.70;;
64633;SDS011;51043;52.406;9.690;2023-12-28T12:04:03;9.83;;;2.73;;
64633;SDS011;51043;52.406;9.690;2023-12-28T12:06:31;8.83;;;3.10;;
64633;SDS011;51043;52.406;9.690;2023-12-28T12:08:59;8.13;;;2.60;;
64633;SDS011;51043;52.406;9.690;2023-12-28T12:11:32;11.50;;;2.73;;
64633;SDS011;51043;52.406;9.690;2023-12-28T12:14:00;9.67;;;2.60;;
64633;SDS011;51043;52.406;9.690;2023-12-28T12:16:30;10.23;;;2.60;;
64633;SDS011;51043;52.406;9.690;2023-12-28T12:18:58;13.23;;;2.63;;
64633;SDS011;51043;52.406;9.690;2023-12-28T12:21:26;14.90;;;3.00;;
64633;SDS011;51043;52.406;9.690;2023-12-28T12:23:55;10.77;;;2.63;;
64633;SDS011;51043;52.406;9.690;2023-12-28T12:26:24;4.77;;;1.90;;
64633;SDS011;51043;52.406;9.690;2023-12-28T12:28:54;15.40;;;3.00;;
64633;SDS011;51043;52.406;9.690;2023-12-28T12:31:23;6.33;;;1.83;;
64633;SDS011;51043;52.406;9.690;2023-12-28T12:33:52;13.13;;;2.37;;
64633;SDS011;51043;52.406;9.690;2023-12-28T12:36:21;8.70;;;2.23;;
64633;SDS011;51043;52.406;9.690;2023-12-28T12:38:49;6.63;;;2.30;;
64633;SDS011;51043;52.406;9.690;2023-12-28T12:41:18;5.77;;;1.87;;
64633;SDS011;51043;52.406;9.690;2023-12-28T12:43:46;7.43;;;2.53;;
64633;SDS011;51043;52.406;9.690;2023-12-28T12:46:15;6.43;;;2.17;;
64633;SDS011;51043;52.406;9.690;2023-12-28T12:48:55;7.10;;;2.00;;
64633;SDS011;51043;52.406;9.690;2023-12-28T12:51:25;7.13;;;1.93;;
64633;SDS011;51043;52.406;9.690;2023-12-28T12:53:58;8.33;;;2.77;;
64633;SDS011;51043;52.406;9.690;2023-12-28T12:56:26;8.23;;;2.53;;
64633;SDS011;51043;52.406;9.690;2023-12-28T12:58:56;9.10;;;2.33;;
64633;SDS011;51043;52.406;9.690;2023-12-28T13:01:28;8.07;;;2.57;;
64633;SDS011;51043;52.406;9.690;2023-12-28T13:03:58;8.30;;;2.47;;
64633;SDS011;51043;52.406;9.690;2023-12-28T13:06:30;6.60;;;2.47;;
64633;SDS011;51043;52.406;9.690;2023-12-28T13:09:00;12.70;;;2.83;;
64633;SDS011;51043;52.406;9.690;2023-12-28T13:11:29;9.80;;;2.90;;
64633;SDS011;51043;52.406;9.690;2023-12-28T13:13:59;8.20;;;2.60;;
64633;SDS011;51043;52.406;9.690;2023-12-28T13:16:29;7.93;;;2.60;;
64633;SDS011;51043;52.406;9.690;2023-12-28T13:18:58;14.40;;;2.90;;
64633;SDS011;51043;52.406;9.690;2023-12-28T13:21:26;10.77;;;3.20;;
64633;SDS011;51043;52.406;9.690;2023-12-28T13:23:54;8.07;;;3.00;;
64633;SDS011;51043;52.406;9.690;2023-12-28T13:26:26;7.53;;;2.00;;
64633;SDS011;51043;52.406;9.690;2023-12-28T13:28:54;10.73;;;3.00;;
64633;SDS011;51043;52.406;9.690;2023-12-28T13:31:23;10.47;;;2.57;;
64633;SDS011;51043;52.406;9.690;2023-12-28T13:33:54;12.10;;;2.90;;
64633;SDS011;51043;52.406;9.690;2023-12-28T13:36:22;8.83;;;2.43;;
64633;SDS011;51043;52.406;9.690;2023-12-28T13:38:53;12.03;;;2.90;;
64633;SDS011;51043;52.406;9.690;2023-12-28T13:41:21;6.57;;;1.97;;
64633;SDS011;51043;52.406;9.690;2023-12-28T13:43:50;9.03;;;2.50;;
64633;SDS011;51043;52.406;9.690;2023-12-28T13:46:20;10.43;;;3.07;;
64633;SDS011;51043;52.406;9.690;2023-12-28T13:48:49;12.43;;;3.13;;
64633;SDS011;51043;52.406;9.690;2023-12-28T13:51:19;9.13;;;2.40;;
64633;SDS011;51043;52.406;9.690;2023-12-28T13:53:47;11.20;;;2.57;;
64633;SDS011;51043;52.406;9.690;2023-12-28T13:56:15;7.90;;;2.33;;
64633;SDS011;51043;52.406;9.690;2023-12-28T13:58:47;12.13;;;3.07;;
64633;SDS011;51043;52.406;9.690;2023-12-28T14:01:17;12.23;;;2.70;;
64633;SDS011;51043;52.406;9.690;2023-12-28T14:03:50;10.90;;;2.87;;
64633;SDS011;51043;52.406;9.690;2023-12-28T14:06:21;12.10;;;2.93;;
64633;SDS011;51043;52.406;9.690;2023-12-28T14:08:50;11.43;;;2.67;;
64633;SDS011;51043;52.406;9.690;2023-12-28T14:11:20;9.67;;;2.93;;
64633;SDS011;51043;52.406;9.690;2023-12-28T14:13:48;8.83;;;2.67;;
64633;SDS011;51043;52.406;9.690;2023-12-28T14:16:16;7.23;;;2.40;;
64633;SDS011;51043;52.406;9.690;2023-12-28T14:18:45;5.23;;;1.90;;
64633;SDS011;51043;52.406;9.690;2023-12-28T14:21:15;11.30;;;3.00;;
64633;SDS011;51043;52.406;9.690;2023-12-28T14:23:50;9.80;;;2.67;;
64633;SDS011;51043;52.406;9.690;2023-12-28T14:26:21;9.63;;;2.70;;
64633;SDS011;51043;52.406;9.690;2023-12-28T14:28:52;11.77;;;3.00;;
64633;SDS011;51043;52.406;9.690;2023-12-28T14:31:22;7.30;;;2.57;;
64633;SDS011;51043;52.406;9.690;2023-12-28T14:33:52;14.43;;;4.17;;
64633;SDS011;51043;52.406;9.690;2023-12-28T14:36:22;6.77;;;3.40;;
64633;SDS011;51043;52.406;9.690;2023-12-28T14:38:57;9.47;;;4.10;;
64633;SDS011;51043;52.406;9.690;2023-12-28T14:41:30;10.20;;;3.97;;
64633;SDS011;51043;52.406;9.690;2023-12-28T14:43:58;10.50;;;3.07;;
64633;SDS011;51043;52.406;9.690;2023-12-28T14:46:29;11.37;;;4.20;;
64633;SDS011;51043;52.406;9.690;2023-12-28T14:48:58;9.37;;;2.60;;
64633;SDS011;51043;52.406;9.690;2023-12-28T14:51:29;10.27;;;3.63;;
64633;SDS011;51043;52.406;9.690;2023-12-28T14:53:59;10.50;;;3.03;;
64633;SDS011;51043;52.406;9.690;2023-12-28T14:56:28;8.23;;;2.30;;
64633;SDS011;51043;52.406;9.690;2023-12-28T14:58:58;8.63;;;2.73;;
64633;SDS011;51043;52.406;9.690;2023-12-28T15:01:26;7.50;;;2.70;;
64633;SDS011;51043;52.406;9.690;2023-12-28T15:03:55;10.80;;;2.73;;